createdAt,value
2023-02-19T00:01:49.230Z,13.15
2023-02-19T00:04:23.858Z,14.27
2023-02-19T00:06:56.008Z,13.23
2023-02-19T00:09:28.476Z,14.00
2023-02-19T00:12:00.573Z,13.07
2023-02-19T00:14:32.652Z,11.73
2023-02-19T00:17:04.626Z,12.63
2023-02-19T00:19:36.697Z,11.70
2023-02-19T00:22:08.687Z,12.38
2023-02-19T00:24:40.815Z,11.65
2023-02-19T00:27:12.798Z,12.60
2023-02-19T00:29:44.784Z,12.05
2023-02-19T00:32:16.769Z,12.07
2023-02-19T00:34:48.783Z,11.18
2023-02-19T00:37:20.749Z,10.60
2023-02-19T00:39:52.892Z,10.38
2023-02-19T00:42:25.863Z,11.50
2023-02-19T00:44:57.947Z,9.68
2023-02-19T00:47:30.026Z,10.57
2023-02-19T00:50:02.117Z,9.70
2023-02-19T00:52:34.235Z,10.57
2023-02-19T00:55:06.654Z,11.05
2023-02-19T00:57:38.997Z,11.35
2023-02-19T01:00:13.930Z,11.88
2023-02-19T01:02:45.993Z,11.55
2023-02-19T01:05:18.168Z,10.60
2023-02-19T01:07:50.124Z,10.52
2023-02-19T01:10:22.221Z,10.50
2023-02-19T01:12:54.193Z,9.40
2023-02-19T01:15:26.248Z,9.25
2023-02-19T01:17:58.295Z,8.15
2023-02-19T01:20:30.312Z,7.47
2023-02-19T01:23:02.298Z,7.75
2023-02-19T01:25:34.462Z,6.22
2023-02-19T01:28:07.034Z,6.25
2023-02-19T01:30:39.634Z,5.68
2023-02-19T01:33:11.666Z,5.65
2023-02-19T01:35:43.668Z,5.95
2023-02-19T01:38:15.684Z,6.18
2023-02-19T01:40:59.942Z,5.35
2023-02-19T01:43:53.740Z,5.57
2023-02-19T01:46:35.190Z,5.45
2023-02-19T01:49:20.865Z,5.50
2023-02-19T01:52:20.806Z,6.05
2023-02-19T01:54:54.674Z,5.85
2023-02-19T01:57:33.400Z,5.43
2023-02-19T02:00:13.217Z,5.45
2023-02-19T02:02:52.294Z,6.45
2023-02-19T02:05:45.270Z,5.20
2023-02-19T02:08:37.180Z,6.18
2023-02-19T02:11:09.770Z,5.15
2023-02-19T02:13:42.291Z,5.70
2023-02-19T02:16:24.334Z,5.25
2023-02-19T02:19:31.913Z,5.82
2023-02-19T02:22:08.300Z,5.43
2023-02-19T02:25:18.493Z,5.40
2023-02-19T02:28:07.888Z,5.43
2023-02-19T02:31:19.980Z,5.93
2023-02-19T02:34:03.715Z,6.55
2023-02-19T02:36:43.971Z,5.93
2023-02-19T02:42:14.852Z,6.65
2023-02-19T02:45:07.019Z,6.50
2023-02-19T02:47:53.807Z,7.32
2023-02-19T02:50:33.078Z,6.57
2023-02-19T02:53:31.817Z,7.35
2023-02-19T02:56:05.326Z,7.88
2023-02-19T02:58:38.478Z,6.47
2023-02-19T03:01:42.868Z,5.97
2023-02-19T03:04:35.416Z,5.43
2023-02-19T03:07:10.258Z,5.13
2023-02-19T03:09:44.500Z,5.13
2023-02-19T03:12:45.538Z,5.38
2023-02-19T03:15:37.898Z,5.40
2023-02-19T03:18:30.905Z,4.57
2023-02-19T03:21:04.388Z,5.13
2023-02-19T03:23:56.084Z,5.07
2023-02-19T03:26:28.676Z,4.40
2023-02-19T03:29:21.986Z,4.30
2023-02-19T03:32:03.529Z,3.90
2023-02-19T03:34:45.092Z,4.57
2023-02-19T03:37:25.452Z,4.43
2023-02-19T03:39:58.257Z,4.03
2023-02-19T03:43:05.529Z,4.05
2023-02-19T03:45:50.342Z,3.85
2023-02-19T03:48:37.241Z,3.63
2023-02-19T03:51:44.219Z,3.45
2023-02-19T03:54:26.079Z,3.75
2023-02-19T03:57:20.856Z,4.22
2023-02-19T04:00:23.147Z,2.92
2023-02-19T04:03:20.696Z,3.50
2023-02-19T04:06:01.668Z,4.22
2023-02-19T04:08:37.276Z,3.67
2023-02-19T04:11:10.982Z,3.63
2023-02-19T04:13:54.070Z,4.50
2023-02-19T04:16:29.717Z,3.72
2023-02-19T04:19:18.273Z,3.80
2023-02-19T04:21:52.375Z,4.20
2023-02-19T04:24:44.744Z,4.25
2023-02-19T04:27:17.381Z,3.70
2023-02-19T04:29:49.510Z,3.55
2023-02-19T04:32:21.652Z,3.80
2023-02-19T04:34:54.474Z,4.00
2023-02-19T04:37:26.706Z,4.13
2023-02-19T04:39:58.849Z,3.97
2023-02-19T04:42:30.858Z,3.53
2023-02-19T04:45:02.938Z,3.58
2023-02-19T04:47:35.004Z,3.58
2023-02-19T04:50:07.908Z,4.22
2023-02-19T04:52:39.971Z,3.60
2023-02-19T04:55:11.972Z,3.10
2023-02-19T04:57:44.075Z,3.72
2023-02-19T05:00:16.282Z,3.03
2023-02-19T05:02:48.300Z,4.00
2023-02-19T05:05:20.240Z,3.33
2023-02-19T05:07:52.223Z,4.25
2023-02-19T05:10:24.260Z,4.18
2023-02-19T05:12:57.963Z,4.43
2023-02-19T05:15:30.137Z,3.90
2023-02-19T05:18:02.125Z,4.10
2023-02-19T05:20:34.133Z,3.72
2023-02-19T05:23:06.113Z,3.40
2023-02-19T05:25:38.068Z,4.00
2023-02-19T05:28:19.388Z,3.63
2023-02-19T05:30:53.227Z,3.20
2023-02-19T05:33:26.578Z,3.55
2023-02-19T05:35:58.766Z,3.83
2023-02-19T05:38:30.747Z,3.70
2023-02-19T05:41:14.390Z,3.80
2023-02-19T05:43:48.867Z,3.88
2023-02-19T05:46:24.442Z,4.05
2023-02-19T05:48:56.952Z,4.00
2023-02-19T05:51:29.402Z,3.85
2023-02-19T05:54:01.550Z,3.60
2023-02-19T05:56:40.370Z,4.40
2023-02-19T05:59:23.726Z,3.97
2023-02-19T06:01:55.932Z,4.50
2023-02-19T06:04:27.980Z,3.45
2023-02-19T06:06:59.942Z,4.40
2023-02-19T06:09:32.474Z,4.07
2023-02-19T06:12:04.806Z,4.82
2023-02-19T06:14:36.869Z,3.90
2023-02-19T06:17:08.947Z,4.00
2023-02-19T06:19:41.166Z,4.22
2023-02-19T06:22:15.663Z,4.03
2023-02-19T06:24:48.305Z,4.03
2023-02-19T06:27:20.363Z,4.65
2023-02-19T06:29:52.526Z,3.42
2023-02-19T06:32:24.706Z,4.05
2023-02-19T06:34:56.856Z,3.65
2023-02-19T06:37:29.559Z,3.80
2023-02-19T06:40:01.627Z,3.58
2023-02-19T06:42:33.657Z,4.32
2023-02-19T06:45:06.340Z,3.65
2023-02-19T06:47:38.325Z,4.40
2023-02-19T06:50:10.439Z,5.15
2023-02-19T06:56:27.007Z,4.32
2023-02-19T07:01:35.555Z,4.85
2023-02-19T07:04:08.149Z,3.95
2023-02-19T07:06:40.459Z,4.20
2023-02-19T07:09:12.922Z,3.88
2023-02-19T07:11:45.725Z,4.05
2023-02-19T07:14:17.900Z,3.83
2023-02-19T07:16:50.113Z,3.45
2023-02-19T07:19:22.121Z,4.47
2023-02-19T07:21:54.120Z,4.18
2023-02-19T07:24:26.176Z,4.53
2023-02-19T07:26:58.237Z,4.43
2023-02-19T07:29:30.179Z,4.45
2023-02-19T07:32:02.331Z,4.18
2023-02-19T07:34:34.385Z,4.57
2023-02-19T07:37:06.465Z,4.97
2023-02-19T07:39:38.422Z,5.53
2023-02-19T07:42:10.528Z,4.80
2023-02-19T07:44:42.546Z,4.90
2023-02-19T07:47:14.802Z,5.18
2023-02-19T07:49:46.777Z,5.45
2023-02-19T07:52:18.770Z,5.80
2023-02-19T07:54:50.729Z,6.25
2023-02-19T07:57:22.783Z,5.65
2023-02-19T07:59:57.257Z,4.90
2023-02-19T08:02:47.529Z,5.25
2023-02-19T08:08:14.430Z,5.40
2023-02-19T08:12:10.948Z,5.83
2023-02-19T08:14:43.096Z,5.03
2023-02-19T08:17:15.156Z,5.15
2023-02-19T08:19:47.265Z,5.88
2023-02-19T08:22:19.284Z,6.30
2023-02-19T08:24:51.274Z,6.95
2023-02-19T08:27:23.268Z,9.18
2023-02-19T08:29:55.261Z,9.15
2023-02-19T08:32:27.297Z,8.90
2023-02-19T08:34:59.412Z,10.20
2023-02-19T08:37:31.475Z,9.15
2023-02-19T08:40:03.907Z,7.45
2023-02-19T08:42:35.870Z,8.10
2023-02-19T08:45:08.661Z,8.20
2023-02-19T08:47:41.138Z,9.38
2023-02-19T08:50:13.481Z,9.75
2023-02-19T08:52:45.454Z,10.45
2023-02-19T08:55:18.077Z,9.73
2023-02-19T08:57:50.702Z,9.68
2023-02-19T09:00:23.131Z,10.02
2023-02-19T09:02:55.112Z,10.20
2023-02-19T09:05:27.205Z,8.88
2023-02-19T09:07:59.475Z,7.97
2023-02-19T09:10:31.644Z,9.60
2023-02-19T09:13:03.688Z,8.88
2023-02-19T09:15:38.250Z,9.65
2023-02-19T09:18:10.212Z,9.80
2023-02-19T09:20:42.296Z,9.20
2023-02-19T09:23:14.245Z,9.30
2023-02-19T09:25:46.368Z,7.63
2023-02-19T09:28:18.411Z,5.82
2023-02-19T09:31:06.628Z,6.53
2023-02-19T09:33:43.645Z,5.35
2023-02-19T09:36:22.350Z,4.68
2023-02-19T09:38:54.772Z,4.93
2023-02-19T09:41:32.060Z,4.65
2023-02-19T09:44:09.501Z,5.30
2023-02-19T09:46:47.008Z,4.65
2023-02-19T09:49:26.459Z,4.30
2023-02-19T09:52:02.569Z,3.25
2023-02-19T09:54:35.289Z,3.60
2023-02-19T09:57:19.798Z,2.80
2023-02-19T10:00:00.470Z,2.97
2023-02-19T10:02:33.580Z,3.28
2023-02-19T10:05:15.151Z,2.17
2023-02-19T10:07:51.470Z,3.13
2023-02-19T10:10:36.161Z,2.80
2023-02-19T10:13:23.434Z,3.58
2023-02-19T10:15:59.407Z,2.47
2023-02-19T10:18:44.082Z,1.65
2023-02-19T10:21:28.043Z,2.13
2023-02-19T10:24:03.009Z,1.90
2023-02-19T10:26:36.832Z,1.90
2023-02-19T10:29:10.914Z,2.95
2023-02-19T10:31:43.005Z,2.55
2023-02-19T10:34:22.808Z,2.15
2023-02-19T10:36:54.813Z,1.83
2023-02-19T10:39:42.833Z,2.50
2023-02-19T10:42:23.068Z,2.10
2023-02-19T10:47:35.943Z,1.60
2023-02-19T10:50:47.100Z,1.73
2023-02-19T10:53:24.430Z,1.60
2023-02-19T10:56:25.720Z,1.20
2023-02-19T10:59:28.621Z,1.45
2023-02-19T11:02:04.507Z,1.25
2023-02-19T11:04:38.102Z,1.83
2023-02-19T11:07:18.403Z,1.40
2023-02-19T11:12:30.265Z,2.15
2023-02-19T11:15:29.098Z,2.10
2023-02-19T11:18:13.129Z,1.88
2023-02-19T11:21:03.809Z,1.90
2023-02-19T11:23:44.080Z,1.73
2023-02-19T11:29:03.434Z,3.17
2023-02-19T11:31:36.302Z,1.92
2023-02-19T11:34:14.290Z,1.95
2023-02-19T11:36:46.216Z,2.10
2023-02-19T11:39:18.157Z,1.98
2023-02-19T11:42:12.092Z,2.17
2023-02-19T11:45:34.768Z,2.10
2023-02-19T11:48:25.136Z,2.45
